sensor_id;sensor_type;location;lat;lon;timestamp;P1;durP1;ratioP1;P2;durP2;ratioP2
14300;SDS011;7234;59.306;18.024;2023-04-25T00:02:01;2.83;;;2.20;;
14300;SDS011;7234;59.306;18.024;2023-04-25T00:04:30;2.90;;;2.43;;
14300;SDS011;7234;59.306;18.024;2023-04-25T00:07:00;3.03;;;2.20;;
14300;SDS011;7234;59.306;18.024;2023-04-25T00:09:27;2.60;;;2.10;;
14300;SDS011;7234;59.306;18.024;2023-04-25T00:11:55;6.17;;;2.40;;
14300;SDS011;7234;59.306;18.024;2023-04-25T00:14:22;4.80;;;2.53;;
14300;SDS011;7234;59.306;18.024;2023-04-25T00:16:49;3.00;;;2.70;;
14300;SDS011;7234;59.306;18.024;2023-04-25T00:19:17;2.70;;;2.23;;
14300;SDS011;7234;59.306;18.024;2023-04-25T00:21:44;3.73;;;2.73;;
14300;SDS011;7234;59.306;18.024;2023-04-25T00:24:13;4.23;;;2.30;;
14300;SDS011;7234;59.306;18.024;2023-04-25T00:26:40;3.57;;;2.40;;
14300;SDS011;7234;59.306;18.024;2023-04-25T00:29:07;3.47;;;2.87;;
14300;SDS011;7234;59.306;18.024;2023-04-25T00:31:34;5.00;;;2.67;;
14300;SDS011;7234;59.306;18.024;2023-04-25T00:34:01;2.97;;;2.20;;
14300;SDS011;7234;59.306;18.024;2023-04-25T00:36:28;2.70;;;2.30;;
14300;SDS011;7234;59.306;18.024;2023-04-25T00:38:56;3.43;;;2.17;;
14300;SDS011;7234;59.306;18.024;2023-04-25T00:41:26;4.17;;;2.50;;
14300;SDS011;7234;59.306;18.024;2023-04-25T00:43:55;2.90;;;2.27;;
14300;SDS011;7234;59.306;18.024;2023-04-25T00:46:24;3.33;;;2.10;;
14300;SDS011;7234;59.306;18.024;2023-04-25T00:48:51;2.07;;;1.87;;
14300;SDS011;7234;59.306;18.024;2023-04-25T00:51:19;3.47;;;2.20;;
14300;SDS011;7234;59.306;18.024;2023-04-25T00:53:48;3.20;;;1.97;;
14300;SDS011;7234;59.306;18.024;2023-04-25T00:56:16;2.53;;;1.60;;
14300;SDS011;7234;59.306;18.024;2023-04-25T00:58:45;4.23;;;1.87;;
14300;SDS011;7234;59.306;18.024;2023-04-25T01:01:12;1.87;;;1.57;;
14300;SDS011;7234;59.306;18.024;2023-04-25T01:03:40;4.93;;;1.77;;
14300;SDS011;7234;59.306;18.024;2023-04-25T01:06:12;2.60;;;1.90;;
14300;SDS011;7234;59.306;18.024;2023-04-25T01:08:39;2.13;;;1.50;;
14300;SDS011;7234;59.306;18.024;2023-04-25T01:11:06;4.33;;;1.70;;
14300;SDS011;7234;59.306;18.024;2023-04-25T01:13:34;3.50;;;2.00;;
14300;SDS011;7234;59.306;18.024;2023-04-25T01:16:03;2.20;;;1.60;;
14300;SDS011;7234;59.306;18.024;2023-04-25T01:18:31;3.23;;;2.00;;
14300;SDS011;7234;59.306;18.024;2023-04-25T01:21:03;3.10;;;1.87;;
14300;SDS011;7234;59.306;18.024;2023-04-25T01:23:34;3.93;;;1.87;;
14300;SDS011;7234;59.306;18.024;2023-04-25T01:26:01;2.67;;;1.70;;
14300;SDS011;7234;59.306;18.024;2023-04-25T01:28:29;1.97;;;1.47;;
14300;SDS011;7234;59.306;18.024;2023-04-25T01:30:58;2.00;;;1.80;;
14300;SDS011;7234;59.306;18.024;2023-04-25T01:33:25;2.00;;;1.60;;
14300;SDS011;7234;59.306;18.024;2023-04-25T01:35:52;1.87;;;1.60;;
14300;SDS011;7234;59.306;18.024;2023-04-25T01:38:21;2.90;;;1.83;;
14300;SDS011;7234;59.306;18.024;2023-04-25T01:40:51;2.13;;;1.80;;
14300;SDS011;7234;59.306;18.024;2023-04-25T01:43:18;1.80;;;1.50;;
14300;SDS011;7234;59.306;18.024;2023-04-25T01:45:46;2.80;;;1.87;;
14300;SDS011;7234;59.306;18.024;2023-04-25T01:48:14;1.80;;;1.60;;
14300;SDS011;7234;59.306;18.024;2023-04-25T01:50:41;2.50;;;1.63;;
14300;SDS011;7234;59.306;18.024;2023-04-25T01:53:09;1.60;;;1.30;;
14300;SDS011;7234;59.306;18.024;2023-04-25T01:55:39;2.87;;;1.40;;
14300;SDS011;7234;59.306;18.024;2023-04-25T01:58:06;3.17;;;1.23;;
14300;SDS011;7234;59.306;18.024;2023-04-25T02:00:37;1.30;;;1.20;;
14300;SDS011;7234;59.306;18.024;2023-04-25T02:03:06;2.50;;;1.33;;
14300;SDS011;7234;59.306;18.024;2023-04-25T02:05:34;1.20;;;1.10;;
14300;SDS011;7234;59.306;18.024;2023-04-25T02:08:02;1.80;;;1.40;;
14300;SDS011;7234;59.306;18.024;2023-04-25T02:10:32;1.70;;;1.20;;
14300;SDS011;7234;59.306;18.024;2023-04-25T02:13:00;1.53;;;1.27;;
14300;SDS011;7234;59.306;18.024;2023-04-25T02:15:29;2.60;;;1.30;;
14300;SDS011;7234;59.306;18.024;2023-04-25T02:17:56;1.20;;;1.10;;
14300;SDS011;7234;59.306;18.024;2023-04-25T02:20:25;2.87;;;1.20;;
14300;SDS011;7234;59.306;18.024;2023-04-25T02:22:52;1.23;;;1.00;;
14300;SDS011;7234;59.306;18.024;2023-04-25T02:25:20;1.47;;;1.10;;
14300;SDS011;7234;59.306;18.024;2023-04-25T02:27:47;1.10;;;1.00;;
14300;SDS011;7234;59.306;18.024;2023-04-25T02:30:18;1.10;;;1.00;;
14300;SDS011;7234;59.306;18.024;2023-04-25T02:32:45;2.47;;;1.03;;
14300;SDS011;7234;59.306;18.024;2023-04-25T02:35:12;0.87;;;0.80;;
14300;SDS011;7234;59.306;18.024;2023-04-25T02:37:40;1.40;;;0.97;;
14300;SDS011;7234;59.306;18.024;2023-04-25T02:40:09;1.13;;;0.83;;
14300;SDS011;7234;59.306;18.024;2023-04-25T02:42:37;1.13;;;1.00;;
14300;SDS011;7234;59.306;18.024;2023-04-25T02:45:04;1.17;;;0.90;;
14300;SDS011;7234;59.306;18.024;2023-04-25T02:47:33;1.10;;;1.00;;
14300;SDS011;7234;59.306;18.024;2023-04-25T02:50:00;0.90;;;0.80;;
14300;SDS011;7234;59.306;18.024;2023-04-25T02:52:29;0.97;;;0.80;;
14300;SDS011;7234;59.306;18.024;2023-04-25T02:54:56;1.03;;;0.80;;
14300;SDS011;7234;59.306;18.024;2023-04-25T02:57:23;1.00;;;0.90;;
14300;SDS011;7234;59.306;18.024;2023-04-25T02:59:50;0.80;;;0.80;;
14300;SDS011;7234;59.306;18.024;2023-04-25T03:02:18;0.90;;;0.80;;
14300;SDS011;7234;59.306;18.024;2023-04-25T03:04:46;1.00;;;0.90;;
14300;SDS011;7234;59.306;18.024;2023-04-25T03:07:13;1.30;;;0.80;;
14300;SDS011;7234;59.306;18.024;2023-04-25T03:09:40;0.90;;;0.80;;
14300;SDS011;7234;59.306;18.024;2023-04-25T03:12:08;0.73;;;0.73;;
14300;SDS011;7234;59.306;18.024;2023-04-25T03:14:35;0.70;;;0.60;;
14300;SDS011;7234;59.306;18.024;2023-04-25T03:17:04;0.73;;;0.73;;
14300;SDS011;7234;59.306;18.024;2023-04-25T03:19:31;1.00;;;0.90;;
14300;SDS011;7234;59.306;18.024;2023-04-25T03:22:00;0.83;;;0.80;;
14300;SDS011;7234;59.306;18.024;2023-04-25T03:24:27;0.70;;;0.70;;
14300;SDS011;7234;59.306;18.024;2023-04-25T03:26:54;0.77;;;0.77;;
14300;SDS011;7234;59.306;18.024;2023-04-25T03:29:21;0.80;;;0.80;;
14300;SDS011;7234;59.306;18.024;2023-04-25T03:31:51;1.13;;;0.80;;
14300;SDS011;7234;59.306;18.024;2023-04-25T03:34:20;0.80;;;0.80;;
14300;SDS011;7234;59.306;18.024;2023-04-25T03:36:49;0.83;;;0.83;;
14300;SDS011;7234;59.306;18.024;2023-04-25T03:39:18;0.77;;;0.77;;
14300;SDS011;7234;59.306;18.024;2023-04-25T03:41:45;0.77;;;0.77;;
14300;SDS011;7234;59.306;18.024;2023-04-25T03:44:12;0.90;;;0.80;;
14300;SDS011;7234;59.306;18.024;2023-04-25T03:46:39;1.00;;;0.90;;
14300;SDS011;7234;59.306;18.024;2023-04-25T03:49:07;1.50;;;0.93;;
14300;SDS011;7234;59.306;18.024;2023-04-25T03:51:34;1.50;;;0.80;;
14300;SDS011;7234;59.306;18.024;2023-04-25T03:54:01;1.13;;;0.90;;
14300;SDS011;7234;59.306;18.024;2023-04-25T03:56:29;1.03;;;1.00;;
14300;SDS011;7234;59.306;18.024;2023-04-25T03:58:57;0.90;;;0.80;;
14300;SDS011;7234;59.306;18.024;2023-04-25T04:01:24;1.10;;;1.00;;
14300;SDS011;7234;59.306;18.024;2023-04-25T04:03:51;0.90;;;0.80;;
14300;SDS011;7234;59.306;18.024;2023-04-25T04:06:18;1.30;;;1.07;;
14300;SDS011;7234;59.306;18.024;2023-04-25T04:08:45;0.70;;;0.70;;
14300;SDS011;7234;59.306;18.024;2023-04-25T04:11:12;1.20;;;1.10;;
14300;SDS011;7234;59.306;18.024;2023-04-25T04:13:43;1.20;;;1.10;;
14300;SDS011;7234;59.306;18.024;2023-04-25T04:16:11;1.40;;;1.03;;
14300;SDS011;7234;59.306;18.024;2023-04-25T04:18:38;1.23;;;1.07;;
14300;SDS011;7234;59.306;18.024;2023-04-25T04:21:05;1.30;;;1.13;;
14300;SDS011;7234;59.306;18.024;2023-04-25T04:23:32;1.30;;;1.10;;
14300;SDS011;7234;59.306;18.024;2023-04-25T04:25:59;1.93;;;1.30;;
14300;SDS011;7234;59.306;18.024;2023-04-25T04:28:27;2.33;;;1.50;;
14300;SDS011;7234;59.306;18.024;2023-04-25T04:30:56;1.93;;;1.50;;
14300;SDS011;7234;59.306;18.024;2023-04-25T04:33:23;2.00;;;1.63;;
14300;SDS011;7234;59.306;18.024;2023-04-25T04:35:51;1.80;;;1.27;;
14300;SDS011;7234;59.306;18.024;2023-04-25T04:38:18;2.33;;;1.37;;
14300;SDS011;7234;59.306;18.024;2023-04-25T04:40:46;3.47;;;2.07;;
14300;SDS011;7234;59.306;18.024;2023-04-25T04:43:14;2.00;;;1.37;;
14300;SDS011;7234;59.306;18.024;2023-04-25T04:45:42;1.47;;;1.37;;
14300;SDS011;7234;59.306;18.024;2023-04-25T04:48:11;3.83;;;1.77;;
14300;SDS011;7234;59.306;18.024;2023-04-25T04:50:39;2.93;;;1.87;;
14300;SDS011;7234;59.306;18.024;2023-04-25T04:53:07;3.07;;;2.00;;
14300;SDS011;7234;59.306;18.024;2023-04-25T04:55:34;5.70;;;1.80;;
14300;SDS011;7234;59.306;18.024;2023-04-25T04:58:02;3.73;;;2.50;;
14300;SDS011;7234;59.306;18.024;2023-04-25T05:00:31;3.53;;;2.20;;
14300;SDS011;7234;59.306;18.024;2023-04-25T05:02:59;2.57;;;1.73;;
14300;SDS011;7234;59.306;18.024;2023-04-25T05:05:28;3.20;;;2.10;;
14300;SDS011;7234;59.306;18.024;2023-04-25T05:07:55;2.87;;;2.13;;
14300;SDS011;7234;59.306;18.024;2023-04-25T05:10:22;4.57;;;2.20;;
14300;SDS011;7234;59.306;18.024;2023-04-25T05:12:50;2.60;;;2.00;;
14300;SDS011;7234;59.306;18.024;2023-04-25T05:15:17;2.87;;;2.27;;
14300;SDS011;7234;59.306;18.024;2023-04-25T05:17:44;3.23;;;2.37;;
14300;SDS011;7234;59.306;18.024;2023-04-25T05:20:11;8.93;;;3.00;;
14300;SDS011;7234;59.306;18.024;2023-04-25T05:22:41;3.23;;;2.47;;
14300;SDS011;7234;59.306;18.024;2023-04-25T05:25:11;4.73;;;2.60;;
14300;SDS011;7234;59.306;18.024;2023-04-25T05:27:38;4.77;;;2.73;;
14300;SDS011;7234;59.306;18.024;2023-04-25T05:30:06;3.93;;;2.20;;
14300;SDS011;7234;59.306;18.024;2023-04-25T05:32:34;3.27;;;2.40;;
14300;SDS011;7234;59.306;18.024;2023-04-25T05:35:02;4.07;;;2.60;;
14300;SDS011;7234;59.306;18.024;2023-04-25T05:37:31;5.20;;;2.97;;
14300;SDS011;7234;59.306;18.024;2023-04-25T05:40:00;4.13;;;2.30;;
14300;SDS011;7234;59.306;18.024;2023-04-25T05:42:31;3.00;;;2.33;;
14300;SDS011;7234;59.306;18.024;2023-04-25T05:44:59;4.47;;;2.77;;
14300;SDS011;7234;59.306;18.024;2023-04-25T05:47:27;6.03;;;2.50;;
14300;SDS011;7234;59.306;18.024;2023-04-25T05:49:54;3.70;;;2.33;;
14300;SDS011;7234;59.306;18.024;2023-04-25T05:52:22;3.40;;;2.20;;
14300;SDS011;7234;59.306;18.024;2023-04-25T05:54:49;5.07;;;2.30;;
14300;SDS011;7234;59.306;18.024;2023-04-25T05:57:21;3.70;;;2.30;;
14300;SDS011;7234;59.306;18.024;2023-04-25T05:59:49;4.57;;;2.77;;
14300;SDS011;7234;59.306;18.024;2023-04-25T06:02:18;2.63;;;2.27;;
14300;SDS011;7234;59.306;18.024;2023-04-25T06:04:46;4.10;;;2.60;;
14300;SDS011;7234;59.306;18.024;2023-04-25T06:07:14;3.83;;;2.40;;
14300;SDS011;7234;59.306;18.024;2023-04-25T06:09:41;3.67;;;2.43;;
14300;SDS011;7234;59.306;18.024;2023-04-25T06:12:09;3.17;;;2.63;;
14300;SDS011;7234;59.306;18.024;2023-04-25T06:14:39;3.47;;;2.27;;
14300;SDS011;7234;59.306;18.024;2023-04-25T06:17:07;3.30;;;2.23;;
14300;SDS011;7234;59.306;18.024;2023-04-25T06:19:35;4.60;;;2.30;;
14300;SDS011;7234;59.306;18.024;2023-04-25T06:22:02;4.97;;;2.23;;
14300;SDS011;7234;59.306;18.024;2023-04-25T06:24:29;2.37;;;1.90;;
14300;SDS011;7234;59.306;18.024;2023-04-25T06:26:57;2.80;;;1.77;;
14300;SDS011;7234;59.306;18.024;2023-04-25T06:29:25;2.43;;;1.77;;
14300;SDS011;7234;59.306;18.024;2023-04-25T06:31:53;3.30;;;1.73;;
14300;SDS011;7234;59.306;18.024;2023-04-25T06:34:20;3.40;;;1.67;;
14300;SDS011;7234;59.306;18.024;2023-04-25T06:36:47;2.63;;;2.10;;
14300;SDS011;7234;59.306;18.024;2023-04-25T17:16:45;10.27;;;6.50;;
14300;SDS011;7234;59.306;18.024;2023-04-25T17:19:16;9.07;;;6.43;;
14300;SDS011;7234;59.306;18.024;2023-04-25T17:21:45;11.53;;;6.30;;
14300;SDS011;7234;59.306;18.024;2023-04-25T17:24:13;12.53;;;7.07;;
14300;SDS011;7234;59.306;18.024;2023-04-25T17:26:54;10.00;;;6.70;;
14300;SDS011;7234;59.306;18.024;2023-04-25T17:29:22;9.90;;;7.17;;
14300;SDS011;7234;59.306;18.024;2023-04-25T17:31:52;11.77;;;6.87;;
14300;SDS011;7234;59.306;18.024;2023-04-25T17:34:21;11.40;;;6.93;;
14300;SDS011;7234;59.306;18.024;2023-04-25T17:36:48;11.07;;;7.97;;
14300;SDS011;7234;59.306;18.024;2023-04-25T17:39:16;10.13;;;7.10;;
14300;SDS011;7234;59.306;18.024;2023-04-25T17:41:44;11.57;;;7.10;;
14300;SDS011;7234;59.306;18.024;2023-04-25T17:44:12;9.60;;;6.70;;
14300;SDS011;7234;59.306;18.024;2023-04-25T17:46:39;14.80;;;8.07;;
14300;SDS011;7234;59.306;18.024;2023-04-25T17:49:09;10.37;;;6.97;;
14300;SDS011;7234;59.306;18.024;2023-04-25T17:51:38;12.37;;;8.00;;
14300;SDS011;7234;59.306;18.024;2023-04-25T17:54:05;11.33;;;7.57;;
14300;SDS011;7234;59.306;18.024;2023-04-25T17:56:35;12.97;;;7.50;;
14300;SDS011;7234;59.306;18.024;2023-04-25T17:59:03;12.03;;;7.50;;
14300;SDS011;7234;59.306;18.024;2023-04-25T18:01:31;12.00;;;7.67;;
14300;SDS011;7234;59.306;18.024;2023-04-25T18:03:58;11.23;;;7.57;;
14300;SDS011;7234;59.306;18.024;2023-04-25T18:06:29;12.57;;;6.97;;
14300;SDS011;7234;59.306;18.024;2023-04-25T18:08:58;11.37;;;7.33;;
14300;SDS011;7234;59.306;18.024;2023-04-25T18:11:26;15.17;;;7.93;;
14300;SDS011;7234;59.306;18.024;2023-04-25T18:13:54;10.97;;;7.20;;
14300;SDS011;7234;59.306;18.024;2023-04-25T18:16:21;10.57;;;7.07;;
14300;SDS011;7234;59.306;18.024;2023-04-25T18:18:48;14.53;;;8.00;;
14300;SDS011;7234;59.306;18.024;2023-04-25T18:21:30;11.33;;;7.33;;
14300;SDS011;7234;59.306;18.024;2023-04-25T18:23:58;11.70;;;7.90;;
14300;SDS011;7234;59.306;18.024;2023-04-25T18:26:26;11.87;;;7.90;;
14300;SDS011;7234;59.306;18.024;2023-04-25T18:28:54;12.33;;;7.27;;
14300;SDS011;7234;59.306;18.024;2023-04-25T18:31:23;11.37;;;7.20;;
14300;SDS011;7234;59.306;18.024;2023-04-25T18:33:51;10.50;;;7.50;;
14300;SDS011;7234;59.306;18.024;2023-04-25T18:36:18;15.37;;;7.87;;
14300;SDS011;7234;59.306;18.024;2023-04-25T18:38:47;13.63;;;8.63;;
14300;SDS011;7234;59.306;18.024;2023-04-25T18:41:19;10.37;;;7.20;;
14300;SDS011;7234;59.306;18.024;2023-04-25T18:43:48;12.47;;;7.30;;
14300;SDS011;7234;59.306;18.024;2023-04-25T18:46:15;12.37;;;7.73;;
14300;SDS011;7234;59.306;18.024;2023-04-25T18:48:46;15.67;;;8.30;;
14300;SDS011;7234;59.306;18.024;2023-04-25T18:51:13;17.00;;;7.83;;
14300;SDS011;7234;59.306;18.024;2023-04-25T18:53:43;12.47;;;8.03;;
14300;SDS011;7234;59.306;18.024;2023-04-25T18:56:13;11.07;;;7.77;;
14300;SDS011;7234;59.306;18.024;2023-04-25T18:58:41;12.00;;;8.17;;
14300;SDS011;7234;59.306;18.024;2023-04-25T19:01:11;10.57;;;7.20;;
14300;SDS011;7234;59.306;18.024;2023-04-25T19:03:39;11.30;;;8.00;;
14300;SDS011;7234;59.306;18.024;2023-04-25T19:06:06;12.17;;;7.50;;
14300;SDS011;7234;59.306;18.024;2023-04-25T19:08:34;10.20;;;7.47;;
14300;SDS011;7234;59.306;18.024;2023-04-25T19:11:01;10.60;;;7.37;;
14300;SDS011;7234;59.306;18.024;2023-04-25T19:13:31;8.73;;;6.63;;
14300;SDS011;7234;59.306;18.024;2023-04-25T19:15:59;14.37;;;8.37;;
14300;SDS011;7234;59.306;18.024;2023-04-25T19:18:26;10.63;;;7.53;;
14300;SDS011;7234;59.306;18.024;2023-04-25T19:20:54;9.50;;;6.87;;
14300;SDS011;7234;59.306;18.024;2023-04-25T19:23:22;11.23;;;7.30;;
14300;SDS011;7234;59.306;18.024;2023-04-25T19:25:51;11.20;;;6.60;;
14300;SDS011;7234;59.306;18.024;2023-04-25T19:28:19;15.10;;;7.70;;
14300;SDS011;7234;59.306;18.024;2023-04-25T19:30:48;10.10;;;7.20;;
14300;SDS011;7234;59.306;18.024;2023-04-25T19:33:17;13.50;;;7.70;;
14300;SDS011;7234;59.306;18.024;2023-04-25T19:35:44;10.73;;;7.20;;
14300;SDS011;7234;59.306;18.024;2023-04-25T19:38:12;12.20;;;7.53;;
14300;SDS011;7234;59.306;18.024;2023-04-25T19:40:40;12.40;;;8.10;;
14300;SDS011;7234;59.306;18.024;2023-04-25T19:43:08;15.73;;;8.73;;
14300;SDS011;7234;59.306;18.024;2023-04-25T19:45:36;11.30;;;8.37;;
14300;SDS011;7234;59.306;18.024;2023-04-25T19:48:05;13.90;;;7.80;;
14300;SDS011;7234;59.306;18.024;2023-04-25T19:50:34;10.80;;;7.87;;
14300;SDS011;7234;59.306;18.024;2023-04-25T19:53:01;11.33;;;8.00;;
14300;SDS011;7234;59.306;18.024;2023-04-25T19:55:29;14.73;;;8.17;;
14300;SDS011;7234;59.306;18.024;2023-04-25T19:57:56;10.93;;;7.97;;
14300;SDS011;7234;59.306;18.024;2023-04-25T20:00:25;12.37;;;8.23;;
14300;SDS011;7234;59.306;18.024;2023-04-25T20:02:53;10.83;;;7.50;;
14300;SDS011;7234;59.306;18.024;2023-04-25T20:05:23;12.90;;;8.37;;
14300;SDS011;7234;59.306;18.024;2023-04-25T20:07:51;9.27;;;6.93;;
14300;SDS011;7234;59.306;18.024;2023-04-25T20:10:18;10.87;;;7.47;;
14300;SDS011;7234;59.306;18.024;2023-04-25T20:12:47;14.70;;;7.53;;
14300;SDS011;7234;59.306;18.024;2023-04-25T20:15:16;11.60;;;7.50;;
14300;SDS011;7234;59.306;18.024;2023-04-25T20:17:43;11.30;;;7.63;;
14300;SDS011;7234;59.306;18.024;2023-04-25T20:20:11;16.73;;;8.60;;
14300;SDS011;7234;59.306;18.024;2023-04-25T20:22:40;16.70;;;9.37;;
14300;SDS011;7234;59.306;18.024;2023-04-25T20:25:08;15.10;;;7.87;;
14300;SDS011;7234;59.306;18.024;2023-04-25T20:27:36;12.37;;;7.50;;
14300;SDS011;7234;59.306;18.024;2023-04-25T20:30:04;18.30;;;8.23;;
14300;SDS011;7234;59.306;18.024;2023-04-25T20:32:32;14.10;;;8.60;;
14300;SDS011;7234;59.306;18.024;2023-04-25T20:35:02;18.30;;;8.33;;
14300;SDS011;7234;59.306;18.024;2023-04-25T20:37:30;13.40;;;8.47;;
14300;SDS011;7234;59.306;18.024;2023-04-25T20:39:59;12.73;;;8.00;;
14300;SDS011;7234;59.306;18.024;2023-04-25T20:42:26;12.30;;;7.27;;
14300;SDS011;7234;59.306;18.024;2023-04-25T20:44:54;15.17;;;7.97;;
14300;SDS011;7234;59.306;18.024;2023-04-25T20:47:22;15.10;;;8.17;;
14300;SDS011;7234;59.306;18.024;2023-04-25T20:49:49;11.77;;;7.47;;
